Latest Coastal Weather Observations for Cape Grim

IDV60701

Issued at 7:55 pm EST Saturday 20 September 2014 (issued every 10 minutes, with the page automatically refreshed every 10 minutes)

About coastal observations | Map of coastal stations | Coastal observations for VIC | Marine services | Other Formats
Station Details ID: 091331 Name: CAPE GRIM Lat: -40.68 Lon: 144.69 Height: 86.0 m
Data from the previous 72 hours. | See also: Recent months at Cape Grim
Date/Time
EST
Temp

°C
Wind Pressure Rain
since 9am
mm
Weather Cloud Vis
km
Sea
Height
m
Swell
Dir
 
Speed
knots
Gust
knots
hPa Trend Height
m
Period
s
Dir
20/07:30pm 10.5 SSW 11 16 1028.9 - 0.0 - - - - - - -
20/07:00pm 10.4 SSW 11 14 1028.6 - 0.0 - Partly cloudy - - - - -
20/06:30pm 10.9 SW 17 23 1028.3 - 0.0 - Partly cloudy - - - - -
20/06:00pm 11.0 SW 22 30 1028.2 - 0.0 - Cloudy - - - - -
20/05:30pm 11.4 SSW 16 22 1027.8 - 0.0 - Partly cloudy - - - - -
20/05:00pm 11.4 SW 18 24 1027.5 - 0.0 - Partly cloudy - - - - -
20/04:30pm 11.5 SW 20 26 1027.5 - 0.0 - Cloudy - - - - -
20/04:00pm 11.6 SW 21 27 1027.3 - 0.0 - Partly cloudy - - - - -
20/03:30pm 11.5 SW 21 27 1027.3 - 0.0 - Partly cloudy - - - - -
20/03:00pm 11.6 SW 18 23 1027.3 - 0.0 - Cloudy - - - - -
20/02:30pm 11.8 SW 19 25 1027.3 - 0.0 - Cloudy - - - - -
20/02:00pm 11.3 SW 17 25 1027.1 - 0.0 - Partly cloudy - - - - -
20/01:30pm 11.4 SSW 16 22 1027.2 - 0.0 - Partly cloudy - - - - -
20/01:00pm 11.2 SSW 17 23 1027.1 - 0.0 - Partly cloudy - - - - -
20/12:30pm 11.5 SW 17 22 1027.2 - 0.0 - Cloudy - - - - -
20/12:00pm 11.1 SW 20 24 1027.5 - 0.0 - Mostly cloudy - - - - -
20/11:30am 11.4 SW 18 22 1027.3 - 0.0 - Cloudy - - - - -
20/11:00am 11.0 SW 19 23 1027.3 - 0.0 - Cloudy - - - - -
20/10:30am 11.4 SW 15 21 1027.3 - 0.0 - Cloudy - - - - -
20/10:00am 10.9 SSW 16 22 1027.4 - 0.0 - Cloudy - - - - -
20/09:30am 10.9 SW 17 23 1027.3 - 0.0 - Cloudy - - - - -
20/09:00am 10.5 SSW 13 18 1027.2 - 1.8 - Cloudy - - - - -
20/08:34am 10.6 SW 15 25 1027.1 - 1.8 - Cloudy - - - - -
20/08:30am 10.5 SW 15 22 1027.1 - 1.8 - Cloudy - - - - -
20/08:00am 10.2 SSW 15 25 1026.7 - 1.8 - Partly cloudy - - - - -
20/07:44am 10.0 SSW 16 22 1026.5 - 1.8 - Partly cloudy - - - - -
20/07:34am 9.6 SSW 14 21 1026.5 - 1.8 - Partly cloudy - - - - -
20/07:30am 9.6 SSW 14 19 1026.5 - 1.6 - Partly cloudy - - - - -
20/07:00am 9.8 SW 19 24 1026.0 - 1.0 - Partly cloudy - - - - -
20/06:30am 9.7 SSW 13 19 1025.7 - 1.0 - Partly cloudy - - - - -
20/06:00am 9.8 SW 15 23 1025.1 - 1.0 - Mostly clear - - - - -
20/05:34am 9.8 SSW 19 29 1024.7 - 1.0 - Partly cloudy - - - - -
20/05:30am 9.7 SW 21 29 1024.6 - 1.0 - Partly cloudy - - - - -
20/05:00am 10.3 SW 19 25 1024.3 - 1.0 - Partly cloudy - - - - -
20/04:30am 10.4 SW 23 28 1024.0 - 1.0 - Partly cloudy - - - - -
20/04:00am 10.6 SW 21 26 1023.8 - 1.0 - Partly cloudy - - - - -
20/03:30am 10.2 SW 22 26 1023.7 - 1.0 - Partly cloudy - - - - -
20/03:00am 10.3 SW 22 26 1023.6 - 1.0 - Mostly cloudy - - - - -
20/02:30am 10.5 SW 21 27 1023.4 - 1.0 - Partly cloudy - - - - -
20/02:00am 10.0 SW 21 25 1023.5 - 1.0 - Partly cloudy - - - - -
20/01:38am 10.2 SW 19 31 1023.5 - 1.0 - Partly cloudy - - - - -
20/01:30am 10.3 SW 17 24 1023.6 - 1.0 - Partly cloudy - - - - -
20/01:00am 10.6 SW 20 25 1023.7 - 1.0 - Partly cloudy - - - - -
20/12:30am 10.2 SW 23 28 1023.5 - 1.0 - Partly cloudy - - - - -
20/12:00am 10.4 SW 21 26 1023.4 - 1.0 - Cloudy - - - - -
 
Date/Time
EST
Temp

°C
Wind Pressure Rain
since 9am
mm
Weather Cloud Vis
km
Sea
Height
m
Swell
Dir
 
Speed
knots
Gust
knots
hPa Trend Height
m
Period
s
Dir
19/11:40pm 10.3 SW 23 33 1023.4 - 1.0 - Partly cloudy - - - - -
19/11:30pm 10.8 SW 21 27 1023.4 - 1.0 - Partly cloudy - - - - -
19/11:24pm 10.8 SW 20 25 1023.4 - 1.0 - Partly cloudy - - - - -
19/11:00pm 10.6 SW 20 27 1023.5 - 1.0 - Partly cloudy - - - - -
19/10:30pm 10.5 SW 22 29 1023.5 - 1.0 - Partly cloudy - - - - -
19/10:00pm 10.9 SW 24 29 1023.6 - 1.0 - Partly cloudy - - - - -
19/09:30pm 10.9 SW 21 26 1023.4 - 0.8 - Partly cloudy - - - - -
19/09:00pm 11.0 SW 25 30 1023.3 - 0.2 - Partly cloudy - - - - -
19/08:30pm 10.9 SW 23 28 1023.1 - 0.2 - Partly cloudy - - - - -
19/08:00pm 10.9 SW 25 31 1022.9 - 0.2 - Partly cloudy - - - - -
19/07:30pm 10.3 SW 26 32 1022.8 - 0.2 - Partly cloudy - - - - -
19/07:17pm 10.3 SW 23 35 1022.7 - 0.2 - Partly cloudy - - - - -
19/07:00pm 11.0 SW 25 30 1022.5 - 0.2 - Partly cloudy - - - - -
19/06:30pm 10.5 SW 25 32 1022.2 - 0.2 - Partly cloudy - - - - -
19/06:03pm 10.2 SW 26 36 1022.0 - 0.2 - Partly cloudy - - - - -
19/06:00pm 10.0 SW 28 36 1021.9 - 0.2 - Cloudy - - - - -
19/05:53pm 10.9 SW 26 36 1021.9 - 0.2 - Partly cloudy - - - - -
19/05:30pm 10.8 SW 25 31 1021.9 - 0.2 - Partly cloudy - - - - -
19/05:00pm 10.9 SW 25 31 1021.7 - 0.2 - Partly cloudy - - - - -
19/04:42pm 11.2 SW 20 31 1021.7 - 0.2 - Partly cloudy - - - - -
19/04:30pm 11.3 SW 21 29 1021.7 - 0.2 - Partly cloudy - - - - -
19/04:09pm 11.3 SW 22 32 1021.5 - 0.2 - Partly cloudy - - - - -
19/04:00pm 11.7 SW 24 31 1021.5 - 0.2 - Partly cloudy - - - - -
19/03:30pm 11.8 SW 24 31 1021.4 - 0.2 - Partly cloudy - - - - -
19/03:12pm 12.1 SW 22 34 1021.3 - 0.2 - Partly cloudy - - - - -
19/03:00pm 12.0 SW 24 30 1021.2 - 0.2 - Cloudy - - - - -
19/02:30pm 11.9 SW 23 31 1021.2 - 0.2 - Partly cloudy - - - - -
19/02:00pm 11.9 SW 26 32 1021.0 - 0.2 - Partly cloudy - - - - -
19/01:30pm 12.0 SW 25 33 1020.9 - 0.2 - Partly cloudy - - - - -
19/01:09pm 12.1 SW 27 37 1020.8 - 0.2 - Partly cloudy - - - - -
19/01:00pm 11.9 SW 31 37 1020.8 - 0.2 - - - - - - -
19/12:30pm 11.4 SW 31 37 1021.1 - 0.2 - - - - - - -
19/12:00pm 11.3 SW 26 34 1021.3 - 0.2 - Cloudy - - - - -
19/11:37am 11.3 SW 22 32 1021.5 - 0.2 - Partly cloudy - - - - -
19/11:30am 11.5 SW 23 30 1021.5 - 0.2 - Partly cloudy - - - - -
19/11:00am 11.2 SW 25 31 1021.8 - 0.2 - Partly cloudy - - - - -
19/10:30am 10.6 SW 26 38 1022.1 - 0.0 - Partly cloudy - - - - -
19/10:28am 10.4 SW 28 38 1022.1 - 0.0 - Partly cloudy - - - - -
19/10:20am 11.0 SW 30 36 1022.0 - 0.0 - Partly cloudy - - - - -
19/10:00am 11.5 SW 17 27 1022.2 - 0.0 - Partly cloudy - - - - -
19/09:30am 10.7 SW 18 28 1022.2 - 0.0 - Partly cloudy - - - - -
19/09:15am 10.9 SW 24 34 1022.2 - 0.0 - Partly cloudy - - - - -
19/09:00am 10.7 SW 25 31 1022.3 - 1.2 Recent precip. Mostly cloudy - - - - -
19/08:30am 10.5 WSW 16 27 1022.1 - 0.8 - Partly cloudy - - - - -
19/08:11am 10.8 SW 19 34 1022.0 - 0.8 - Partly cloudy - - - - -
19/08:00am 11.0 SW 19 26 1022.0 - 0.8 - Partly cloudy - - - - -
19/07:40am 10.2 SW 19 30 1021.9 - 0.8 - Partly cloudy - - - - -
19/07:30am 10.4 SW 20 26 1021.8 - 0.8 - Partly cloudy - - - - -
19/07:17am 10.1 SW 20 24 1021.7 - 0.8 - Partly cloudy - - - - -
19/07:02am 10.1 SW 31 34 1021.6 - 0.8 - Partly cloudy - - - - -
19/07:00am 10.8 SW 21 35 1021.5 - 0.8 - Partly cloudy - - - - -
19/06:30am 9.8 SW 20 27 1021.3 - 0.8 - Partly cloudy - - - - -
19/06:00am 10.9 SW 25 35 1021.0 - 0.6 Recent precip. Partly cloudy - - - - -
19/05:30am 9.7 SW 23 35 1020.8 - 0.6 - Partly cloudy - - - - -
19/05:00am 11.2 SW 18 30 1020.5 - 0.4 - Partly cloudy - - - - -
19/04:33am 11.0 SW 21 33 1020.5 - 0.4 - Partly cloudy - - - - -
19/04:30am 11.0 SW 21 30 1020.5 - 0.4 - Partly cloudy - - - - -
19/04:02am 10.9 SW 21 32 1020.5 - 0.4 - Partly cloudy - - - - -
19/04:00am 11.0 SW 22 31 1020.5 - 0.4 - Partly cloudy - - - - -
19/03:30am 11.1 SW 23 29 1020.5 - 0.4 - Partly cloudy - - - - -
19/03:03am 11.1 SW 22 33 1020.3 - 0.4 - Partly cloudy - - - - -
19/03:00am 11.1 SW 22 29 1020.3 - 0.4 - Mostly cloudy - - - - -
19/02:30am 10.4 SW 26 37 1020.6 - 0.4 - Partly cloudy - - - - -
19/02:00am 11.1 SW 21 31 1020.5 - 0.4 - Partly cloudy - - - - -
19/01:30am 11.1 SW 21 31 1020.8 - 0.4 - Partly cloudy - - - - -
19/01:00am 10.8 SW 20 31 1021.0 - 0.4 - Partly cloudy - - - - -
19/12:30am 10.8 SW 23 34 1021.1 - 0.4 - Partly cloudy - - - - -
19/12:00am 11.0 SW 19 29 1021.1 - 0.4 - Cloudy - - - - -
 
Date/Time
EST
Temp

°C
Wind Pressure Rain
since 9am
mm
Weather Cloud Vis
km
Sea
Height
m
Swell
Dir
 
Speed
knots
Gust
knots
hPa Trend Height
m
Period
s
Dir
18/11:30pm 10.9 SW 19 33 1021.2 - 0.4 - Partly cloudy - - - - -
18/11:00pm 10.9 SW 21 31 1021.3 - 0.4 - Partly cloudy - - - - -
18/10:30pm 9.7 SW 27 40 1021.4 - 0.4 - Partly cloudy - - - - -
18/10:00pm 10.9 WSW 21 33 1021.3 - 0.4 - Partly cloudy - - - - -
18/09:31pm 11.0 SW 22 32 1021.5 - 0.4 - Partly cloudy - - - - -
18/09:30pm 11.1 SW 23 32 1021.5 - 0.4 - Partly cloudy - - - - -
18/09:10pm 11.0 SW 25 35 1021.5 - 0.4 - Partly cloudy - - - - -
18/09:00pm 10.8 SW 26 34 1021.5 - 0.4 - Partly cloudy - - - - -
18/08:30pm 11.1 SW 23 36 1021.2 - 0.4 - Partly cloudy - - - - -
18/08:00pm 11.0 WSW 15 29 1021.0 - 0.4 - Partly cloudy - - - - -
18/07:38pm 11.0 SW 19 29 1021.0 - 0.4 - Partly cloudy - - - - -
18/07:30pm 10.9 SW 21 29 1021.0 - 0.4 - Partly cloudy - - - - -
18/07:00pm 10.6 SW 19 32 1020.9 - 0.4 - Partly cloudy - - - - -
18/06:30pm 10.9 SW 22 32 1020.7 - 0.4 - Partly cloudy - - - - -
18/06:03pm 11.0 SW 19 29 1020.7 - 0.4 - Partly cloudy - - - - -
18/06:00pm 10.9 SW 20 29 1020.6 - 0.4 - Partly cloudy - - - - -
18/05:30pm 10.9 SW 20 31 1020.5 - 0.4 - Partly cloudy - - - - -
18/05:08pm 11.2 SW 21 31 1020.6 - 0.4 - Partly cloudy - - - - -
18/05:00pm 11.2 SW 21 30 1020.6 - 0.4 - Partly cloudy - - - - -
18/04:30pm 11.2 SW 27 33 1020.6 - 0.4 - Partly cloudy - - - - -
18/04:00pm 11.2 SW 26 32 1020.5 - 0.4 - - - - - - -
18/03:30pm 11.1 SW 24 31 1020.4 - 0.4 - Partly cloudy - - - - -
18/03:00pm 11.3 SW 25 31 1020.2 - 0.4 - Mostly clear - - - - -
18/02:30pm 11.3 SW 25 29 1020.3 - 0.4 - Partly cloudy - - - - -
18/02:00pm 11.3 SW 25 29 1020.3 - 0.4 - Partly cloudy - - - - -
18/01:30pm 11.2 SW 26 31 1020.3 - 0.4 - Partly cloudy - - - - -
18/01:00pm 11.1 SW 28 34 1020.3 - 0.4 - Partly cloudy - - - - -
18/12:30pm 11.0 SW 26 33 1020.3 - 0.4 - Partly cloudy - - - - -
18/12:00pm 10.2 SW 23 29 1020.3 - 0.4 - Cloudy - - - - -
18/11:41am 9.2 SW 22 32 1020.3 - 0.4 - Partly cloudy - - - - -
18/11:30am 10.2 SW 24 30 1020.3 - 0.4 - Partly cloudy - - - - -
18/11:09am 9.8 SW 25 35 1020.4 - 0.4 - Partly cloudy - - - - -
18/11:00am 9.7 SW 23 31 1020.4 - 0.4 - Partly cloudy - - - - -
18/10:40am 10.2 SW 24 34 1020.2 - 0.0 - Partly cloudy - - - - -
18/10:30am 10.5 SW 26 33 1020.3 - 0.0 - Partly cloudy - - - - -
18/10:00am 10.0 SW 25 30 1020.1 - 0.0 - Partly cloudy - - - - -
18/09:38am 9.5 SW 26 37 1019.9 - 0.0 - Partly cloudy - - - - -
18/09:30am 10.8 SW 23 30 1020.0 - 0.0 - Partly cloudy - - - - -
18/09:00am 10.1 SW 28 37 1019.7 - 4.4 - Mostly clear - - - - -
18/08:51am 10.3 SW 26 37 1019.6 - 4.4 - Partly cloudy - - - - -
18/08:30am 10.5 SW 25 31 1019.3 - 4.4 - Partly cloudy - - - - -
18/08:00am 10.3 SW 24 35 1019.1 - 4.4 - Partly cloudy - - - - -
18/07:41am 10.2 SW 25 35 1018.9 - 4.4 - Partly cloudy - - - - -
18/07:30am 10.1 SW 27 35 1018.8 - 4.4 - Partly cloudy - - - - -
18/07:19am 10.1 SW 24 34 1018.7 - 4.4 - Partly cloudy - - - - -
18/07:00am 9.9 SW 27 35 1018.4 - 4.4 - Partly cloudy - - - - -
18/06:30am 9.6 SSW 19 30 1018.0 - 4.4 - Partly cloudy - - - - -
18/06:17am 8.9 SSW 21 31 1017.7 - 4.4 - Partly cloudy - - - - -
18/06:00am 9.4 SW 22 30 1017.6 - 4.4 Recent precip. Cloudy - - - - -
18/05:30am 8.3 SSW 20 31 1017.4 - 3.8 - Partly cloudy - - - - -
18/05:14am 9.2 SW 24 35 1017.1 - 3.6 - Partly cloudy - - - - -
18/05:00am 8.7 SW 21 29 1017.1 - 3.6 - Partly cloudy - - - - -
18/04:40am 9.1 SW 21 35 1016.8 - 3.2 - Partly cloudy - - - - -
18/04:30am 9.6 SSW 21 28 1016.7 - 3.2 - Partly cloudy - - - - -
18/04:00am 9.5 SW 24 35 1016.4 - 3.2 - - - - - - -
18/03:52am 9.6 SW 26 36 1016.4 - 3.2 - Partly cloudy - - - - -
18/03:30am 9.7 SW 26 35 1016.2 - 3.2 - Partly cloudy - - - - -
18/03:00am 9.7 SW 22 29 1016.1 - 3.2 - Partly cloudy - - - - -
18/02:30am 9.8 SW 22 31 1015.9 - 3.2 - Partly cloudy - - - - -
18/02:00am 9.0 SSW 23 34 1015.7 - 3.2 - Partly cloudy - - - - -
18/01:41am 9.7 SW 22 32 1015.7 - 3.2 - Partly cloudy - - - - -
18/01:30am 9.7 SW 25 32 1015.8 - 3.2 - Partly cloudy - - - - -
18/01:00am 9.4 SW 25 35 1015.5 - 3.2 - Partly cloudy - - - - -
18/12:30am 8.2 SW 27 37 1015.7 - 3.2 - Partly cloudy - - - - -
18/12:02am 9.7 SW 25 35 1015.3 - 3.2 - Partly cloudy - - - - -
18/12:00am 9.7 SW 26 35 1015.3 - 3.2 - Partly cloudy - - - - -
 
Date/Time
EST
Temp

°C
Wind Pressure Rain
since 9am
mm
Weather Cloud Vis
km
Sea
Height
m
Swell
Dir
 
Speed
knots
Gust
knots
hPa Trend Height
m
Period
s
Dir
17/11:36pm 9.2 SW 27 37 1014.9 - 3.2 - Partly cloudy - - - - -
17/11:30pm 9.1 SW 27 35 1014.9 - 3.2 - Partly cloudy - - - - -
17/11:09pm 9.3 SW 27 37 1014.9 - 3.2 - Partly cloudy - - - - -
17/11:00pm 9.0 SW 29 38 1014.9 - 3.2 - Partly cloudy - - - - -
17/10:43pm 8.2 SW 25 36 1014.7 - 3.2 - Partly cloudy - - - - -
17/10:37pm 7.9 SSW 21 27 1014.6 - 3.2 - Partly cloudy - - - - -
17/10:30pm 8.7 SW 32 45 1014.5 - 2.8 - Partly cloudy - - - - -
17/10:00pm 8.6 SW 28 38 1014.2 - 2.8 - Partly cloudy - - - - -
17/09:52pm 8.5 SW 26 36 1014.2 - 2.8 - Partly cloudy - - - - -
17/09:48pm 8.3 SW 24 29 1014.2 - 2.8 - Partly cloudy - - - - -
17/09:30pm 8.0 SW 34 46 1014.0 - 2.8 - Partly cloudy - - - - -
17/09:21pm 8.8 SW 30 46 1013.9 - 2.8 - Partly cloudy - - - - -
17/09:00pm 7.9 SW 32 38 1013.8 - 2.8 Recent precip. Cloudy - - - - -
17/08:48pm 8.0 SW 43 53 1013.6 - 2.6 - Partly cloudy - - - - -
17/08:46pm 8.3 SW 44 53 1013.4 - 2.6 - Partly cloudy - - - - -
17/08:45pm 9.0 SW 33 53 1013.1 - 2.6 - Partly cloudy - - - - -
17/08:30pm 8.8 SW 27 37 1013.2 - 2.6 - Partly cloudy - - - - -
17/08:27pm 8.5 SW 27 37 1013.2 - 2.6 - Partly cloudy - - - - -
17/08:26pm 8.6 SW 25 33 1013.2 - 2.6 - Partly cloudy - - - - -
17/08:23pm 8.0 SW 36 46 1013.2 - 2.6 - Partly cloudy - - - - -
17/08:19pm 7.6 SW 39 46 1013.2 - 2.6 - Partly cloudy - - - - -
17/08:14pm 6.9 SW 26 38 1013.2 - 2.4 - Partly cloudy - - - - -
17/08:12pm 6.3 SW 23 32 1013.2 - 2.4 - Partly cloudy - - - - -
17/08:10pm 6.1 SW 38 48 1013.3 - 2.2 - Partly cloudy - - - - -
17/08:08pm 7.4 SW 41 48 1013.2 - 1.6 - Partly cloudy - - - - -
17/08:00pm 8.9 SW 29 41 1013.0 - 1.6 - Partly cloudy - - - - -

Other Formats:

Comma delimited format used in spreadsheet applications
http://www.bom.gov.au/fwo/IDV60701/IDV60701.95954.axf

JavaScript Object Notation format (JSON) in row-major order
http://www.bom.gov.au/fwo/IDV60701/IDV60701.95954.json